sensor_id;sensor_type;location;lat;lon;timestamp;P1;durP1;ratioP1;P2;durP2;ratioP2
26080;SDS011;13991;51.174;4.438;2023-02-01T00:00:20;31.90;;;7.23;;
26080;SDS011;13991;51.174;4.438;2023-02-01T00:02:45;47.17;;;6.93;;
26080;SDS011;13991;51.174;4.438;2023-02-01T00:05:11;51.20;;;7.47;;
26080;SDS011;13991;51.174;4.438;2023-02-01T00:07:38;41.13;;;6.57;;
26080;SDS011;13991;51.174;4.438;2023-02-01T00:10:04;43.67;;;7.33;;
26080;SDS011;13991;51.174;4.438;2023-02-01T00:12:31;42.17;;;7.67;;
26080;SDS011;13991;51.174;4.438;2023-02-01T00:14:57;53.63;;;7.07;;
26080;SDS011;13991;51.174;4.438;2023-02-01T00:17:23;33.67;;;6.47;;
26080;SDS011;13991;51.174;4.438;2023-02-01T00:19:48;34.93;;;7.10;;
26080;SDS011;13991;51.174;4.438;2023-02-01T00:22:14;31.50;;;6.73;;
26080;SDS011;13991;51.174;4.438;2023-02-01T00:24:40;41.30;;;5.87;;
26080;SDS011;13991;51.174;4.438;2023-02-01T00:27:05;39.40;;;6.93;;
26080;SDS011;13991;51.174;4.438;2023-02-01T00:29:31;39.67;;;7.17;;
26080;SDS011;13991;51.174;4.438;2023-02-01T00:31:57;45.97;;;7.97;;
26080;SDS011;13991;51.174;4.438;2023-02-01T00:34:22;50.50;;;7.33;;
26080;SDS011;13991;51.174;4.438;2023-02-01T00:36:48;40.83;;;6.67;;
26080;SDS011;13991;51.174;4.438;2023-02-01T00:39:14;38.13;;;8.17;;
26080;SDS011;13991;51.174;4.438;2023-02-01T00:41:40;43.10;;;8.10;;
26080;SDS011;13991;51.174;4.438;2023-02-01T00:44:06;35.20;;;7.57;;
26080;SDS011;13991;51.174;4.438;2023-02-01T00:46:32;47.87;;;6.53;;
26080;SDS011;13991;51.174;4.438;2023-02-01T00:48:58;41.83;;;6.77;;
26080;SDS011;13991;51.174;4.438;2023-02-01T00:51:24;39.50;;;6.53;;
26080;SDS011;13991;51.174;4.438;2023-02-01T00:53:52;47.97;;;8.23;;
26080;SDS011;13991;51.174;4.438;2023-02-01T00:56:18;44.97;;;8.20;;
26080;SDS011;13991;51.174;4.438;2023-02-01T00:58:44;50.60;;;9.43;;
26080;SDS011;13991;51.174;4.438;2023-02-01T01:01:12;48.33;;;7.10;;
26080;SDS011;13991;51.174;4.438;2023-02-01T01:03:42;35.97;;;8.03;;
26080;SDS011;13991;51.174;4.438;2023-02-01T01:06:14;36.77;;;7.00;;
26080;SDS011;13991;51.174;4.438;2023-02-01T01:08:41;36.97;;;6.93;;
26080;SDS011;13991;51.174;4.438;2023-02-01T01:11:12;42.57;;;6.90;;
26080;SDS011;13991;51.174;4.438;2023-02-01T01:13:41;51.00;;;7.97;;
26080;SDS011;13991;51.174;4.438;2023-02-01T01:16:07;54.90;;;8.30;;
26080;SDS011;13991;51.174;4.438;2023-02-01T01:18:35;53.30;;;9.10;;
26080;SDS011;13991;51.174;4.438;2023-02-01T01:21:01;48.50;;;7.23;;
26080;SDS011;13991;51.174;4.438;2023-02-01T01:23:27;38.00;;;7.87;;
26080;SDS011;13991;51.174;4.438;2023-02-01T01:25:53;48.23;;;7.07;;
26080;SDS011;13991;51.174;4.438;2023-02-01T01:28:19;45.80;;;7.83;;
26080;SDS011;13991;51.174;4.438;2023-02-01T01:30:44;39.80;;;6.90;;
26080;SDS011;13991;51.174;4.438;2023-02-01T01:33:10;51.53;;;9.37;;
26080;SDS011;13991;51.174;4.438;2023-02-01T01:35:36;42.13;;;6.73;;
26080;SDS011;13991;51.174;4.438;2023-02-01T01:38:02;55.97;;;6.83;;
26080;SDS011;13991;51.174;4.438;2023-02-01T01:40:28;41.20;;;6.60;;
26080;SDS011;13991;51.174;4.438;2023-02-01T01:42:54;44.93;;;7.30;;
26080;SDS011;13991;51.174;4.438;2023-02-01T01:45:25;36.60;;;5.50;;
26080;SDS011;13991;51.174;4.438;2023-02-01T01:47:54;42.53;;;6.47;;
26080;SDS011;13991;51.174;4.438;2023-02-01T01:50:25;49.23;;;6.30;;
26080;SDS011;13991;51.174;4.438;2023-02-01T01:52:54;40.30;;;5.30;;
26080;SDS011;13991;51.174;4.438;2023-02-01T01:55:23;46.07;;;6.47;;
26080;SDS011;13991;51.174;4.438;2023-02-01T01:57:52;31.40;;;5.37;;
26080;SDS011;13991;51.174;4.438;2023-02-01T02:00:22;38.40;;;4.60;;
26080;SDS011;13991;51.174;4.438;2023-02-01T02:02:50;39.20;;;5.10;;
26080;SDS011;13991;51.174;4.438;2023-02-01T02:05:22;35.83;;;5.70;;
26080;SDS011;13991;51.174;4.438;2023-02-01T02:07:49;45.43;;;5.67;;
26080;SDS011;13991;51.174;4.438;2023-02-01T02:10:17;40.53;;;6.13;;
26080;SDS011;13991;51.174;4.438;2023-02-01T02:12:44;43.17;;;6.10;;
26080;SDS011;13991;51.174;4.438;2023-02-01T02:15:12;42.40;;;4.83;;
26080;SDS011;13991;51.174;4.438;2023-02-01T02:23:56;28.67;;;4.33;;
26080;SDS011;13991;51.174;4.438;2023-02-01T02:34:57;34.67;;;6.07;;
26080;SDS011;13991;51.174;4.438;2023-02-01T02:37:42;20.63;;;5.03;;
26080;SDS011;13991;51.174;4.438;2023-02-01T02:46:06;47.73;;;6.57;;
26080;SDS011;13991;51.174;4.438;2023-02-01T02:51:59;43.17;;;4.77;;
26080;SDS011;13991;51.174;4.438;2023-02-01T02:54:49;53.17;;;6.53;;
26080;SDS011;13991;51.174;4.438;2023-02-01T02:57:21;42.70;;;5.70;;
26080;SDS011;13991;51.174;4.438;2023-02-01T03:00:11;43.40;;;5.30;;
26080;SDS011;13991;51.174;4.438;2023-02-01T03:02:58;39.67;;;5.17;;
26080;SDS011;13991;51.174;4.438;2023-02-01T03:05:46;29.40;;;5.40;;
26080;SDS011;13991;51.174;4.438;2023-02-01T03:08:25;43.07;;;6.33;;
26080;SDS011;13991;51.174;4.438;2023-02-01T03:11:00;46.47;;;5.83;;
26080;SDS011;13991;51.174;4.438;2023-02-01T03:13:40;36.43;;;5.10;;
26080;SDS011;13991;51.174;4.438;2023-02-01T03:16:22;38.60;;;5.10;;
26080;SDS011;13991;51.174;4.438;2023-02-01T03:21:33;34.73;;;4.93;;
26080;SDS011;13991;51.174;4.438;2023-02-01T03:24:08;30.20;;;4.63;;
26080;SDS011;13991;51.174;4.438;2023-02-01T03:26:38;34.37;;;4.27;;
26080;SDS011;13991;51.174;4.438;2023-02-01T03:29:11;35.93;;;4.50;;
26080;SDS011;13991;51.174;4.438;2023-02-01T03:31:39;36.47;;;5.37;;
26080;SDS011;13991;51.174;4.438;2023-02-01T03:34:05;35.00;;;4.17;;
26080;SDS011;13991;51.174;4.438;2023-02-01T03:36:31;27.83;;;4.53;;
26080;SDS011;13991;51.174;4.438;2023-02-01T03:39:16;41.93;;;5.53;;
26080;SDS011;13991;51.174;4.438;2023-02-01T03:41:51;28.67;;;4.27;;
26080;SDS011;13991;51.174;4.438;2023-02-01T03:44:29;34.93;;;4.17;;
26080;SDS011;13991;51.174;4.438;2023-02-01T03:47:02;34.83;;;3.83;;
26080;SDS011;13991;51.174;4.438;2023-02-01T03:49:30;58.03;;;4.93;;
26080;SDS011;13991;51.174;4.438;2023-02-01T03:52:01;28.37;;;3.90;;
26080;SDS011;13991;51.174;4.438;2023-02-01T03:54:28;42.83;;;4.80;;
26080;SDS011;13991;51.174;4.438;2023-02-01T03:56:56;33.40;;;4.50;;
26080;SDS011;13991;51.174;4.438;2023-02-01T03:59:25;31.47;;;3.57;;
26080;SDS011;13991;51.174;4.438;2023-02-01T04:01:51;37.97;;;5.10;;
26080;SDS011;13991;51.174;4.438;2023-02-01T04:04:17;43.80;;;4.00;;
26080;SDS011;13991;51.174;4.438;2023-02-01T04:06:47;36.13;;;4.17;;
26080;SDS011;13991;51.174;4.438;2023-02-01T04:09:16;38.07;;;5.17;;
26080;SDS011;13991;51.174;4.438;2023-02-01T04:11:42;33.13;;;4.83;;
26080;SDS011;13991;51.174;4.438;2023-02-01T04:14:08;31.83;;;3.60;;
26080;SDS011;13991;51.174;4.438;2023-02-01T04:16:34;38.53;;;5.87;;
26080;SDS011;13991;51.174;4.438;2023-02-01T04:19:00;34.30;;;4.90;;
26080;SDS011;13991;51.174;4.438;2023-02-01T04:21:26;44.33;;;4.87;;
26080;SDS011;13991;51.174;4.438;2023-02-01T04:23:52;32.67;;;5.03;;
26080;SDS011;13991;51.174;4.438;2023-02-01T04:26:18;31.63;;;4.77;;
26080;SDS011;13991;51.174;4.438;2023-02-01T04:28:45;42.03;;;5.50;;
26080;SDS011;13991;51.174;4.438;2023-02-01T04:31:13;54.30;;;5.97;;
26080;SDS011;13991;51.174;4.438;2023-02-01T04:33:39;53.50;;;4.90;;
26080;SDS011;13991;51.174;4.438;2023-02-01T04:36:05;43.27;;;4.47;;
26080;SDS011;13991;51.174;4.438;2023-02-01T04:38:31;41.50;;;6.03;;
26080;SDS011;13991;51.174;4.438;2023-02-01T04:40:57;33.70;;;5.47;;
26080;SDS011;13991;51.174;4.438;2023-02-01T04:43:23;38.50;;;4.57;;
26080;SDS011;13991;51.174;4.438;2023-02-01T04:45:49;51.90;;;5.90;;
26080;SDS011;13991;51.174;4.438;2023-02-01T04:48:16;41.23;;;5.17;;
26080;SDS011;13991;51.174;4.438;2023-02-01T04:50:42;40.47;;;5.13;;
26080;SDS011;13991;51.174;4.438;2023-02-01T04:53:12;47.60;;;5.00;;
26080;SDS011;13991;51.174;4.438;2023-02-01T04:55:39;42.17;;;6.10;;
26080;SDS011;13991;51.174;4.438;2023-02-01T04:58:04;60.67;;;5.83;;
26080;SDS011;13991;51.174;4.438;2023-02-01T05:00:30;44.80;;;6.60;;
26080;SDS011;13991;51.174;4.438;2023-02-01T05:02:56;44.27;;;5.07;;
26080;SDS011;13991;51.174;4.438;2023-02-01T05:05:22;51.27;;;5.80;;
26080;SDS011;13991;51.174;4.438;2023-02-01T05:07:47;40.63;;;6.17;;
26080;SDS011;13991;51.174;4.438;2023-02-01T05:10:13;40.03;;;4.70;;
26080;SDS011;13991;51.174;4.438;2023-02-01T05:12:38;37.87;;;5.20;;
26080;SDS011;13991;51.174;4.438;2023-02-01T05:15:23;37.53;;;5.70;;
26080;SDS011;13991;51.174;4.438;2023-02-01T05:17:48;45.30;;;5.27;;
26080;SDS011;13991;51.174;4.438;2023-02-01T05:20:14;30.13;;;4.33;;
26080;SDS011;13991;51.174;4.438;2023-02-01T05:22:40;51.97;;;6.30;;
26080;SDS011;13991;51.174;4.438;2023-02-01T05:25:07;63.57;;;6.10;;
26080;SDS011;13991;51.174;4.438;2023-02-01T05:27:33;49.43;;;6.70;;
26080;SDS011;13991;51.174;4.438;2023-02-01T05:29:58;34.30;;;4.37;;
26080;SDS011;13991;51.174;4.438;2023-02-01T05:32:24;41.57;;;4.77;;
26080;SDS011;13991;51.174;4.438;2023-02-01T05:34:50;42.10;;;5.00;;
26080;SDS011;13991;51.174;4.438;2023-02-01T05:37:15;36.00;;;4.60;;
26080;SDS011;13991;51.174;4.438;2023-02-01T05:39:41;42.70;;;5.43;;
26080;SDS011;13991;51.174;4.438;2023-02-01T05:42:07;51.40;;;5.03;;
26080;SDS011;13991;51.174;4.438;2023-02-01T05:44:33;35.40;;;5.40;;
26080;SDS011;13991;51.174;4.438;2023-02-01T05:46:59;39.83;;;5.10;;
26080;SDS011;13991;51.174;4.438;2023-02-01T05:49:25;39.23;;;5.03;;
26080;SDS011;13991;51.174;4.438;2023-02-01T05:51:50;56.10;;;6.23;;
26080;SDS011;13991;51.174;4.438;2023-02-01T05:54:16;44.43;;;5.50;;
26080;SDS011;13991;51.174;4.438;2023-02-01T05:56:42;40.97;;;5.80;;
26080;SDS011;13991;51.174;4.438;2023-02-01T05:59:08;33.73;;;4.40;;
26080;SDS011;13991;51.174;4.438;2023-02-01T06:01:34;35.80;;;5.50;;
26080;SDS011;13991;51.174;4.438;2023-02-01T06:04:00;49.87;;;5.87;;
26080;SDS011;13991;51.174;4.438;2023-02-01T06:06:25;37.43;;;4.80;;
26080;SDS011;13991;51.174;4.438;2023-02-01T06:08:51;44.20;;;5.57;;
26080;SDS011;13991;51.174;4.438;2023-02-01T06:11:17;43.17;;;5.43;;
26080;SDS011;13991;51.174;4.438;2023-02-01T06:13:42;62.03;;;6.53;;
26080;SDS011;13991;51.174;4.438;2023-02-01T06:16:08;50.13;;;5.63;;
26080;SDS011;13991;51.174;4.438;2023-02-01T06:18:34;37.47;;;4.07;;
26080;SDS011;13991;51.174;4.438;2023-02-01T06:21:00;43.53;;;5.00;;
26080;SDS011;13991;51.174;4.438;2023-02-01T06:23:30;41.03;;;6.00;;
26080;SDS011;13991;51.174;4.438;2023-02-01T06:26:00;33.50;;;4.50;;
26080;SDS011;13991;51.174;4.438;2023-02-01T06:28:28;60.63;;;6.83;;
26080;SDS011;13991;51.174;4.438;2023-02-01T06:30:55;35.67;;;4.00;;
26080;SDS011;13991;51.174;4.438;2023-02-01T06:33:23;30.57;;;5.83;;
26080;SDS011;13991;51.174;4.438;2023-02-01T06:35:56;39.90;;;5.57;;
26080;SDS011;13991;51.174;4.438;2023-02-01T06:38:23;40.17;;;5.07;;
26080;SDS011;13991;51.174;4.438;2023-02-01T06:40:54;41.10;;;5.00;;
26080;SDS011;13991;51.174;4.438;2023-02-01T06:43:22;39.77;;;6.13;;
26080;SDS011;13991;51.174;4.438;2023-02-01T06:45:48;32.77;;;5.60;;
26080;SDS011;13991;51.174;4.438;2023-02-01T06:48:14;51.70;;;6.23;;
26080;SDS011;13991;51.174;4.438;2023-02-01T06:50:40;49.87;;;6.03;;
26080;SDS011;13991;51.174;4.438;2023-02-01T06:53:06;58.67;;;5.23;;
26080;SDS011;13991;51.174;4.438;2023-02-01T06:55:31;39.40;;;4.60;;
26080;SDS011;13991;51.174;4.438;2023-02-01T06:57:57;37.23;;;5.37;;
26080;SDS011;13991;51.174;4.438;2023-02-01T07:00:23;38.80;;;5.30;;
26080;SDS011;13991;51.174;4.438;2023-02-01T07:02:49;39.93;;;5.00;;
26080;SDS011;13991;51.174;4.438;2023-02-01T07:05:15;40.17;;;4.63;;
26080;SDS011;13991;51.174;4.438;2023-02-01T07:07:41;43.60;;;4.73;;
26080;SDS011;13991;51.174;4.438;2023-02-01T07:10:07;33.73;;;4.07;;
26080;SDS011;13991;51.174;4.438;2023-02-01T07:12:34;47.53;;;4.90;;
26080;SDS011;13991;51.174;4.438;2023-02-01T07:15:00;43.63;;;5.57;;
26080;SDS011;13991;51.174;4.438;2023-02-01T07:17:27;48.90;;;4.87;;
26080;SDS011;13991;51.174;4.438;2023-02-01T07:19:54;38.10;;;6.20;;
26080;SDS011;13991;51.174;4.438;2023-02-01T07:22:26;41.40;;;5.00;;
26080;SDS011;13991;51.174;4.438;2023-02-01T07:24:52;31.10;;;5.90;;
26080;SDS011;13991;51.174;4.438;2023-02-01T07:27:18;47.40;;;4.33;;
26080;SDS011;13991;51.174;4.438;2023-02-01T07:29:45;45.13;;;4.40;;
26080;SDS011;13991;51.174;4.438;2023-02-01T07:32:10;47.17;;;6.40;;
26080;SDS011;13991;51.174;4.438;2023-02-01T07:34:36;51.57;;;6.33;;
26080;SDS011;13991;51.174;4.438;2023-02-01T07:37:01;49.50;;;5.50;;
26080;SDS011;13991;51.174;4.438;2023-02-01T07:39:27;49.93;;;5.07;;
26080;SDS011;13991;51.174;4.438;2023-02-01T07:41:53;42.73;;;6.20;;
26080;SDS011;13991;51.174;4.438;2023-02-01T07:44:19;34.83;;;5.30;;
26080;SDS011;13991;51.174;4.438;2023-02-01T07:46:48;38.67;;;5.40;;
26080;SDS011;13991;51.174;4.438;2023-02-01T07:49:14;37.23;;;5.23;;
26080;SDS011;13991;51.174;4.438;2023-02-01T07:51:40;44.67;;;6.03;;
26080;SDS011;13991;51.174;4.438;2023-02-01T07:54:06;35.77;;;5.93;;
26080;SDS011;13991;51.174;4.438;2023-02-01T07:56:31;31.73;;;4.97;;
26080;SDS011;13991;51.174;4.438;2023-02-01T07:58:57;46.50;;;5.17;;
26080;SDS011;13991;51.174;4.438;2023-02-01T08:01:25;50.40;;;6.43;;
26080;SDS011;13991;51.174;4.438;2023-02-01T08:03:59;38.83;;;4.97;;
26080;SDS011;13991;51.174;4.438;2023-02-01T08:06:27;39.30;;;5.93;;
26080;SDS011;13991;51.174;4.438;2023-02-01T08:08:54;30.93;;;3.80;;
26080;SDS011;13991;51.174;4.438;2023-02-01T08:11:21;46.33;;;7.10;;
26080;SDS011;13991;51.174;4.438;2023-02-01T08:13:47;56.57;;;6.37;;
26080;SDS011;13991;51.174;4.438;2023-02-01T08:16:14;43.10;;;6.03;;
26080;SDS011;13991;51.174;4.438;2023-02-01T08:18:41;38.87;;;5.60;;
26080;SDS011;13991;51.174;4.438;2023-02-01T08:21:12;49.00;;;6.27;;
26080;SDS011;13991;51.174;4.438;2023-02-01T08:23:40;49.63;;;5.13;;
26080;SDS011;13991;51.174;4.438;2023-02-01T08:26:07;51.70;;;5.97;;
26080;SDS011;13991;51.174;4.438;2023-02-01T08:28:36;50.90;;;5.13;;
26080;SDS011;13991;51.174;4.438;2023-02-01T08:31:06;43.80;;;4.63;;
26080;SDS011;13991;51.174;4.438;2023-02-01T08:33:34;39.47;;;5.57;;
26080;SDS011;13991;51.174;4.438;2023-02-01T08:36:02;42.20;;;5.10;;
26080;SDS011;13991;51.174;4.438;2023-02-01T08:38:29;38.27;;;5.77;;
26080;SDS011;13991;51.174;4.438;2023-02-01T08:40:54;43.33;;;5.30;;
26080;SDS011;13991;51.174;4.438;2023-02-01T08:43:20;33.33;;;5.00;;
26080;SDS011;13991;51.174;4.438;2023-02-01T08:45:46;48.10;;;5.87;;
26080;SDS011;13991;51.174;4.438;2023-02-01T08:48:12;41.17;;;5.80;;
26080;SDS011;13991;51.174;4.438;2023-02-01T08:50:37;52.23;;;6.13;;
26080;SDS011;13991;51.174;4.438;2023-02-01T08:53:03;44.87;;;5.60;;
26080;SDS011;13991;51.174;4.438;2023-02-01T08:55:29;47.33;;;5.77;;
26080;SDS011;13991;51.174;4.438;2023-02-01T08:57:55;47.77;;;6.53;;
26080;SDS011;13991;51.174;4.438;2023-02-01T09:00:21;54.30;;;6.50;;
26080;SDS011;13991;51.174;4.438;2023-02-01T09:02:47;37.87;;;6.57;;
26080;SDS011;13991;51.174;4.438;2023-02-01T09:05:12;48.37;;;4.93;;
26080;SDS011;13991;51.174;4.438;2023-02-01T09:07:41;43.67;;;6.47;;
26080;SDS011;13991;51.174;4.438;2023-02-01T09:10:07;44.73;;;5.93;;
26080;SDS011;13991;51.174;4.438;2023-02-01T09:12:34;41.47;;;5.90;;
26080;SDS011;13991;51.174;4.438;2023-02-01T09:15:00;40.97;;;6.03;;
26080;SDS011;13991;51.174;4.438;2023-02-01T09:17:27;39.73;;;6.17;;
26080;SDS011;13991;51.174;4.438;2023-02-01T09:19:53;42.00;;;6.47;;
26080;SDS011;13991;51.174;4.438;2023-02-01T09:22:19;47.30;;;5.70;;
26080;SDS011;13991;51.174;4.438;2023-02-01T09:24:45;46.33;;;5.00;;
26080;SDS011;13991;51.174;4.438;2023-02-01T09:27:11;45.87;;;5.73;;
26080;SDS011;13991;51.174;4.438;2023-02-01T09:29:37;42.50;;;6.13;;
26080;SDS011;13991;51.174;4.438;2023-02-01T09:32:02;44.17;;;5.43;;
26080;SDS011;13991;51.174;4.438;2023-02-01T09:34:28;48.13;;;5.60;;
26080;SDS011;13991;51.174;4.438;2023-02-01T09:36:54;30.17;;;4.57;;
26080;SDS011;13991;51.174;4.438;2023-02-01T09:39:20;46.50;;;6.90;;
26080;SDS011;13991;51.174;4.438;2023-02-01T09:42:00;49.70;;;5.67;;
26080;SDS011;13991;51.174;4.438;2023-02-01T09:47:13;45.60;;;4.40;;
26080;SDS011;13991;51.174;4.438;2023-02-01T09:49:58;49.97;;;5.07;;
26080;SDS011;13991;51.174;4.438;2023-02-01T09:52:52;45.80;;;4.70;;
26080;SDS011;13991;51.174;4.438;2023-02-01T10:00:53;28.03;;;4.63;;
26080;SDS011;13991;51.174;4.438;2023-02-01T10:03:23;27.97;;;4.53;;
26080;SDS011;13991;51.174;4.438;2023-02-01T10:11:06;43.50;;;4.20;;
26080;SDS011;13991;51.174;4.438;2023-02-01T10:18:57;33.73;;;6.00;;
26080;SDS011;13991;51.174;4.438;2023-02-01T10:29:43;34.57;;;5.13;;
26080;SDS011;13991;51.174;4.438;2023-02-01T10:32:15;38.60;;;4.40;;
26080;SDS011;13991;51.174;4.438;2023-02-01T10:34:43;42.77;;;4.93;;
26080;SDS011;13991;51.174;4.438;2023-02-01T10:37:16;32.30;;;4.60;;
26080;SDS011;13991;51.174;4.438;2023-02-01T10:39:47;41.57;;;3.90;;
26080;SDS011;13991;51.174;4.438;2023-02-01T10:42:15;44.00;;;4.60;;
26080;SDS011;13991;51.174;4.438;2023-02-01T10:44:44;38.57;;;4.30;;
26080;SDS011;13991;51.174;4.438;2023-02-01T10:47:13;35.93;;;4.20;;
26080;SDS011;13991;51.174;4.438;2023-02-01T10:49:43;32.47;;;3.93;;
26080;SDS011;13991;51.174;4.438;2023-02-01T10:52:16;33.83;;;4.30;;
26080;SDS011;13991;51.174;4.438;2023-02-01T10:57:59;26.77;;;3.70;;
26080;SDS011;13991;51.174;4.438;2023-02-01T11:00:27;32.60;;;3.70;;
26080;SDS011;13991;51.174;4.438;2023-02-01T11:02:53;33.43;;;3.33;;
26080;SDS011;13991;51.174;4.438;2023-02-01T11:05:21;27.73;;;3.37;;
26080;SDS011;13991;51.174;4.438;2023-02-01T11:07:49;32.40;;;3.73;;
26080;SDS011;13991;51.174;4.438;2023-02-01T11:13:02;36.57;;;3.40;;
26080;SDS011;13991;51.174;4.438;2023-02-01T11:15:31;33.63;;;2.40;;
26080;SDS011;13991;51.174;4.438;2023-02-01T11:17:57;23.57;;;2.73;;
26080;SDS011;13991;51.174;4.438;2023-02-01T11:20:40;24.07;;;2.97;;
26080;SDS011;13991;51.174;4.438;2023-02-01T11:23:16;27.80;;;3.20;;
26080;SDS011;13991;51.174;4.438;2023-02-01T11:25:52;25.20;;;2.60;;
26080;SDS011;13991;51.174;4.438;2023-02-01T11:28:26;18.90;;;2.77;;
26080;SDS011;13991;51.174;4.438;2023-02-01T11:31:04;26.83;;;3.07;;
26080;SDS011;13991;51.174;4.438;2023-02-01T11:33:34;27.10;;;3.03;;
26080;SDS011;13991;51.174;4.438;2023-02-01T11:36:13;36.30;;;3.13;;
26080;SDS011;13991;51.174;4.438;2023-02-01T11:38:45;22.00;;;2.90;;
26080;SDS011;13991;51.174;4.438;2023-02-01T11:41:24;34.10;;;3.90;;
26080;SDS011;13991;51.174;4.438;2023-02-01T11:46:19;20.37;;;3.40;;
26080;SDS011;13991;51.174;4.438;2023-02-01T11:48:53;23.90;;;2.80;;
26080;SDS011;13991;51.174;4.438;2023-02-01T11:54:04;36.57;;;5.23;;
26080;SDS011;13991;51.174;4.438;2023-02-01T12:01:56;28.77;;;2.67;;
26080;SDS011;13991;51.174;4.438;2023-02-01T12:07:24;34.50;;;3.17;;
26080;SDS011;13991;51.174;4.438;2023-02-01T12:10:02;35.03;;;2.87;;
26080;SDS011;13991;51.174;4.438;2023-02-01T12:18:35;23.27;;;1.90;;
26080;SDS011;13991;51.174;4.438;2023-02-01T12:21:17;24.07;;;2.17;;
26080;SDS011;13991;51.174;4.438;2023-02-01T12:26:53;22.73;;;3.13;;
26080;SDS011;13991;51.174;4.438;2023-02-01T12:43:25;28.20;;;2.70;;
26080;SDS011;13991;51.174;4.438;2023-02-01T12:47:12;27.93;;;3.53;;
26080;SDS011;13991;51.174;4.438;2023-02-01T12:51:50;22.07;;;2.70;;
26080;SDS011;13991;51.174;4.438;2023-02-01T12:57:13;26.63;;;3.23;;
26080;SDS011;13991;51.174;4.438;2023-02-01T12:59:46;25.80;;;2.60;;
26080;SDS011;13991;51.174;4.438;2023-02-01T13:05:02;26.17;;;2.57;;
26080;SDS011;13991;51.174;4.438;2023-02-01T13:07:37;23.67;;;2.53;;
26080;SDS011;13991;51.174;4.438;2023-02-01T13:10:18;21.27;;;2.50;;
26080;SDS011;13991;51.174;4.438;2023-02-01T13:13:07;21.50;;;2.67;;
26080;SDS011;13991;51.174;4.438;2023-02-01T13:15:55;21.83;;;3.40;;
26080;SDS011;13991;51.174;4.438;2023-02-01T13:18:37;24.33;;;2.43;;
26080;SDS011;13991;51.174;4.438;2023-02-01T13:21:20;23.80;;;2.87;;
26080;SDS011;13991;51.174;4.438;2023-02-01T13:23:54;18.33;;;2.37;;
26080;SDS011;13991;51.174;4.438;2023-02-01T13:26:20;25.13;;;2.67;;
26080;SDS011;13991;51.174;4.438;2023-02-01T13:28:59;23.97;;;3.00;;
26080;SDS011;13991;51.174;4.438;2023-02-01T13:40:41;29.20;;;2.50;;
26080;SDS011;13991;51.174;4.438;2023-02-01T13:43:17;32.43;;;2.83;;
26080;SDS011;13991;51.174;4.438;2023-02-01T13:45:49;29.73;;;3.27;;
26080;SDS011;13991;51.174;4.438;2023-02-01T13:50:59;27.00;;;3.40;;
26080;SDS011;13991;51.174;4.438;2023-02-01T13:53:30;30.97;;;2.87;;
26080;SDS011;13991;51.174;4.438;2023-02-01T13:55:59;37.50;;;3.00;;
26080;SDS011;13991;51.174;4.438;2023-02-01T13:58:38;16.37;;;2.37;;
26080;SDS011;13991;51.174;4.438;2023-02-01T14:03:50;23.23;;;3.27;;
26080;SDS011;13991;51.174;4.438;2023-02-01T14:11:41;40.20;;;4.07;;
26080;SDS011;13991;51.174;4.438;2023-02-01T14:19:27;19.33;;;2.93;;
26080;SDS011;13991;51.174;4.438;2023-02-01T14:21:57;36.03;;;3.10;;
26080;SDS011;13991;51.174;4.438;2023-02-01T14:24:53;31.27;;;3.90;;
26080;SDS011;13991;51.174;4.438;2023-02-01T14:27:23;35.20;;;3.40;;
26080;SDS011;13991;51.174;4.438;2023-02-01T14:29:52;28.30;;;3.43;;
26080;SDS011;13991;51.174;4.438;2023-02-01T14:32:25;23.63;;;2.47;;
26080;SDS011;13991;51.174;4.438;2023-02-01T14:34:58;24.07;;;2.70;;
26080;SDS011;13991;51.174;4.438;2023-02-01T14:37:27;28.83;;;3.27;;
26080;SDS011;13991;51.174;4.438;2023-02-01T14:40:04;22.03;;;2.67;;
26080;SDS011;13991;51.174;4.438;2023-02-01T14:42:47;27.40;;;3.40;;
26080;SDS011;13991;51.174;4.438;2023-02-01T14:47:53;22.67;;;3.47;;
26080;SDS011;13991;51.174;4.438;2023-02-01T14:52:58;32.13;;;4.40;;
26080;SDS011;13991;51.174;4.438;2023-02-01T14:55:39;29.43;;;3.60;;
26080;SDS011;13991;51.174;4.438;2023-02-01T14:58:30;30.10;;;4.07;;
26080;SDS011;13991;51.174;4.438;2023-02-01T15:01:20;28.40;;;3.07;;
26080;SDS011;13991;51.174;4.438;2023-02-01T15:03:49;49.20;;;5.33;;
26080;SDS011;13991;51.174;4.438;2023-02-01T15:09:25;44.43;;;4.93;;
26080;SDS011;13991;51.174;4.438;2023-02-01T15:12:02;33.10;;;3.70;;
26080;SDS011;13991;51.174;4.438;2023-02-01T15:14:29;32.13;;;3.07;;
26080;SDS011;13991;51.174;4.438;2023-02-01T15:16:59;26.90;;;3.13;;
26080;SDS011;13991;51.174;4.438;2023-02-01T15:19:25;26.13;;;2.93;;
26080;SDS011;13991;51.174;4.438;2023-02-01T15:21:56;34.73;;;3.53;;
26080;SDS011;13991;51.174;4.438;2023-02-01T15:24:24;38.03;;;4.73;;
26080;SDS011;13991;51.174;4.438;2023-02-01T15:26:52;29.20;;;2.83;;
26080;SDS011;13991;51.174;4.438;2023-02-01T15:29:20;27.90;;;3.63;;
26080;SDS011;13991;51.174;4.438;2023-02-01T15:31:50;35.37;;;3.50;;
26080;SDS011;13991;51.174;4.438;2023-02-01T15:34:18;22.97;;;3.63;;
26080;SDS011;13991;51.174;4.438;2023-02-01T15:36:45;29.07;;;4.10;;
26080;SDS011;13991;51.174;4.438;2023-02-01T15:39:17;29.63;;;3.70;;
26080;SDS011;13991;51.174;4.438;2023-02-01T15:41:57;37.67;;;4.50;;
26080;SDS011;13991;51.174;4.438;2023-02-01T15:44:30;29.60;;;2.90;;
26080;SDS011;13991;51.174;4.438;2023-02-01T15:46:56;42.50;;;4.03;;
26080;SDS011;13991;51.174;4.438;2023-02-01T15:49:30;32.37;;;4.00;;
26080;SDS011;13991;51.174;4.438;2023-02-01T15:52:19;25.47;;;3.77;;
26080;SDS011;13991;51.174;4.438;2023-02-01T15:54:50;42.30;;;4.67;;
26080;SDS011;13991;51.174;4.438;2023-02-01T15:57:22;33.13;;;4.13;;
26080;SDS011;13991;51.174;4.438;2023-02-01T16:00:00;29.20;;;4.20;;
26080;SDS011;13991;51.174;4.438;2023-02-01T16:05:01;31.53;;;4.23;;
26080;SDS011;13991;51.174;4.438;2023-02-01T16:07:29;35.53;;;5.00;;
26080;SDS011;13991;51.174;4.438;2023-02-01T16:09:57;40.73;;;4.70;;
26080;SDS011;13991;51.174;4.438;2023-02-01T16:15:01;42.23;;;3.77;;
26080;SDS011;13991;51.174;4.438;2023-02-01T16:17:27;36.87;;;3.43;;
26080;SDS011;13991;51.174;4.438;2023-02-01T16:19:53;52.67;;;4.73;;
26080;SDS011;13991;51.174;4.438;2023-02-01T16:22:20;36.40;;;4.87;;
26080;SDS011;13991;51.174;4.438;2023-02-01T16:24:46;36.33;;;4.50;;
26080;SDS011;13991;51.174;4.438;2023-02-01T16:27:11;31.90;;;3.83;;
26080;SDS011;13991;51.174;4.438;2023-02-01T16:29:37;41.87;;;4.70;;
26080;SDS011;13991;51.174;4.438;2023-02-01T16:32:03;42.07;;;5.17;;
26080;SDS011;13991;51.174;4.438;2023-02-01T16:34:30;43.27;;;6.60;;
26080;SDS011;13991;51.174;4.438;2023-02-01T16:36:56;41.70;;;5.47;;
26080;SDS011;13991;51.174;4.438;2023-02-01T16:39:22;40.70;;;4.97;;
26080;SDS011;13991;51.174;4.438;2023-02-01T16:41:49;38.80;;;5.03;;
26080;SDS011;13991;51.174;4.438;2023-02-01T16:44:15;30.80;;;4.67;;
26080;SDS011;13991;51.174;4.438;2023-02-01T16:46:44;36.80;;;5.17;;
26080;SDS011;13991;51.174;4.438;2023-02-01T16:49:22;30.47;;;4.23;;
26080;SDS011;13991;51.174;4.438;2023-02-01T16:51:50;39.10;;;4.83;;
26080;SDS011;13991;51.174;4.438;2023-02-01T16:54:20;38.17;;;4.53;;
26080;SDS011;13991;51.174;4.438;2023-02-01T16:56:46;41.90;;;3.93;;
26080;SDS011;13991;51.174;4.438;2023-02-01T16:59:12;37.70;;;5.23;;
26080;SDS011;13991;51.174;4.438;2023-02-01T17:01:39;45.30;;;5.63;;
26080;SDS011;13991;51.174;4.438;2023-02-01T17:04:07;37.27;;;5.93;;
26080;SDS011;13991;51.174;4.438;2023-02-01T17:06:36;37.43;;;5.20;;
26080;SDS011;13991;51.174;4.438;2023-02-01T17:09:03;45.93;;;5.40;;